Time;durP1;ratioP1;P1;durP2;ratioP2;P2;SDS_P1;SDS_P2;PMS_P1;PMS_P2;Temp;Humidity;BMP_temperature;BMP_pressure;BME280_temperature;BME280_humidity;BME280_pressure;Samples;Min_cycle;Max_cycle;Signal;HPM_P1;HPM_P2
2021/01/08 00:01:43;;;;;;;1999.90;999.90;;;3.20;99.90;;;;;;5005748;28;20165;-80
2021/01/08 00:04:12;;;;;;;1999.90;999.90;;;3.20;99.90;;;;;;5005771;28;20163;-80
2021/01/08 00:06:46;;;;;;;1999.90;999.90;;;3.20;99.90;;;;;;4988016;28;20198;-80
2021/01/08 00:09:20;;;;;;;1999.90;999.90;;;3.20;99.90;;;;;;5005162;28;20184;-80
2021/01/08 00:11:46;;;;;;;1999.90;999.90;;;3.20;99.90;;;;;;4987745;28;20174;-80
2021/01/08 00:14:12;;;;;;;1999.90;999.90;;;3.20;99.90;;;;;;4987447;28;20514;-80
2021/01/08 00:16:37;;;;;;;1999.90;999.90;;;3.20;99.90;;;;;;5005282;28;20186;-80
2021/01/08 00:19:06;;;;;;;1999.90;999.90;;;3.20;99.90;;;;;;4986808;28;21014;-80
2021/01/08 00:21:44;;;;;;;1999.90;999.90;;;3.20;99.90;;;;;;5004601;28;20406;-80
2021/01/08 00:24:14;;;;;;;1999.90;999.90;;;3.20;99.90;;;;;;4987444;28;20175;-80
2021/01/08 00:26:44;;;;;;;1999.90;999.90;;;3.20;99.90;;;;;;5004142;28;20202;-80
2021/01/08 00:29:16;;;;;;;1999.90;999.90;;;3.20;99.90;;;;;;4986748;28;20204;-80
2021/01/08 00:31:46;;;;;;;1999.90;999.90;;;3.20;99.90;;;;;;5004051;28;20618;-80
2021/01/08 00:34:29;;;;;;;;;;;;;;;;;;;;;
2021/01/08 00:37:10;;;;;;;1999.90;999.90;;;3.10;99.90;;;;;;5003424;28;20587;-80
2021/01/08 00:39:41;;;;;;;1999.90;999.90;;;3.10;99.90;;;;;;4986925;28;20238;-79
2021/01/08 00:42:13;;;;;;;1999.90;999.90;;;3.20;99.90;;;;;;4985205;28;20638;-80
2021/01/08 00:44:48;;;;;;;1999.90;999.90;;;3.20;99.90;;;;;;4984712;28;20163;-79
2021/01/08 00:47:19;;;;;;;1999.90;999.90;;;3.20;99.90;;;;;;4984993;28;20236;-79
2021/01/08 00:49:48;;;;;;;1999.90;999.90;;;3.10;99.90;;;;;;4984747;28;20652;-80
2021/01/08 00:52:16;;;;;;;1999.90;999.90;;;3.20;99.90;;;;;;5001905;28;20167;-80
2021/01/08 00:54:48;;;;;;;1999.90;999.90;;;3.20;99.90;;;;;;4984141;28;20183;-80
2021/01/08 00:57:14;;;;;;;1999.90;999.90;;;3.20;99.90;;;;;;4983712;28;20261;-79
2021/01/08 00:59:43;;;;;;;1999.90;999.90;;;3.20;99.90;;;;;;4983945;28;20178;-80
2021/01/08 01:02:12;;;;;;;1999.90;999.90;;;3.10;99.90;;;;;;4983029;28;20625;-80
2021/01/08 01:04:41;;;;;;;1999.90;999.90;;;3.10;99.90;;;;;;4999952;28;20173;-80
2021/01/08 01:07:15;;;;;;;1999.90;999.90;;;3.10;99.90;;;;;;4982843;28;20217;-79
2021/01/08 01:09:41;;;;;;;1999.90;999.90;;;3.00;99.90;;;;;;5000303;28;20171;-80
2021/01/08 01:12:07;;;;;;;1999.90;999.90;;;3.00;99.90;;;;;;4982564;28;20630;-80
2021/01/08 01:14:35;;;;;;;1999.90;999.90;;;3.00;99.90;;;;;;4982769;28;20424;-80
2021/01/08 01:17:13;;;;;;;1999.90;999.90;;;3.00;99.90;;;;;;4982723;28;20430;-80
2021/01/08 01:19:45;;;;;;;1999.90;999.90;;;3.00;99.90;;;;;;4983447;28;20177;-79
2021/01/08 01:22:18;;;;;;;1999.90;999.90;;;3.00;99.90;;;;;;4982546;28;20189;-80
2021/01/08 01:24:53;;;;;;;1999.90;999.90;;;2.90;99.90;;;;;;5000162;28;20147;-80
2021/01/08 01:27:18;;;;;;;1999.90;999.90;;;2.90;99.90;;;;;;4982141;28;20225;-79
2021/01/08 01:29:47;;;;;;;1999.90;999.90;;;2.90;99.90;;;;;;4982944;28;20634;-80
2021/01/08 01:32:22;;;;;;;1999.90;999.90;;;2.90;99.90;;;;;;5000221;28;20163;-79
2021/01/08 01:34:55;;;;;;;1999.90;999.90;;;2.90;99.90;;;;;;5000203;28;20147;-80
2021/01/08 01:37:33;;;;;;;1999.90;999.90;;;2.80;99.90;;;;;;4983553;28;20605;-80
2021/01/08 01:40:02;;;;;;;1999.90;999.90;;;2.90;99.90;;;;;;5000128;28;20630;-80
2021/01/08 01:42:30;;;;;;;1999.90;999.90;;;2.90;99.90;;;;;;4981725;28;20166;-80
2021/01/08 01:44:59;;;;;;;1999.90;999.90;;;2.80;99.90;;;;;;4999620;28;20304;-80
2021/01/08 01:47:26;;;;;;;1999.90;999.90;;;2.80;99.90;;;;;;4982729;28;20250;-80
2021/01/08 01:49:53;;;;;;;1999.90;999.90;;;2.80;99.90;;;;;;4981825;28;20281;-79
2021/01/08 01:52:24;;;;;;;1999.90;999.90;;;2.80;99.90;;;;;;4999425;28;20245;-79
2021/01/08 01:54:53;;;;;;;1999.90;999.90;;;2.80;99.90;;;;;;4999542;28;20158;-80
2021/01/08 01:57:31;;;;;;;1999.90;999.90;;;2.80;99.90;;;;;;4982526;28;20178;-80
2021/01/08 01:59:58;;;;;;;1999.90;999.90;;;2.80;99.90;;;;;;4981978;28;20184;-79
2021/01/08 02:02:48;;;;;;;1999.90;999.90;;;2.80;99.90;;;;;;4981565;28;20167;-79
2021/01/08 02:05:22;;;;;;;1999.90;999.90;;;2.80;99.90;;;;;;4981712;28;20174;-80
2021/01/08 02:08:11;;;;;;;1999.90;999.90;;;2.90;99.90;;;;;;4981731;28;20206;-80
2021/01/08 02:10:54;;;;;;;1999.90;999.90;;;2.80;99.90;;;;;;4999112;28;20684;-80
2021/01/08 02:13:28;;;;;;;1999.90;999.90;;;2.80;99.90;;;;;;4981599;28;20206;-80
2021/01/08 02:16:08;;;;;;;1999.90;999.90;;;2.70;99.90;;;;;;4981449;28;20590;-80
2021/01/08 02:18:36;;;;;;;1999.90;999.90;;;2.80;99.90;;;;;;4980735;28;20657;-80
2021/01/08 02:21:14;;;;;;;1999.90;999.90;;;2.80;99.90;;;;;;4981426;28;20209;-80
2021/01/08 02:24:18;;;;;;;1999.90;999.90;;;2.80;99.90;;;;;;4999410;28;20153;-80
2021/01/08 02:26:46;;;;;;;1999.90;999.90;;;2.80;99.90;;;;;;4999086;28;20181;-80
2021/01/08 02:29:12;;;;;;;1999.90;999.90;;;2.80;99.90;;;;;;4981975;28;20260;-80
2021/01/08 02:31:39;;;;;;;1999.90;999.90;;;2.70;99.90;;;;;;4999647;28;20166;-80
2021/01/08 02:34:05;;;;;;;1999.90;999.90;;;2.70;99.90;;;;;;4980864;28;20166;-79
2021/01/08 02:36:35;;;;;;;1999.90;999.90;;;2.70;99.90;;;;;;4980847;28;20671;-80
2021/01/08 02:39:00;;;;;;;1999.90;999.90;;;2.70;99.90;;;;;;4998321;28;20174;-79
2021/01/08 02:41:27;;;;;;;1999.90;999.90;;;2.80;99.90;;;;;;4998336;28;20257;-80
2021/01/08 02:44:01;;;;;;;1999.90;999.90;;;2.80;99.90;;;;;;4997705;28;20404;-80
2021/01/08 02:46:27;;;;;;;1999.90;999.90;;;2.80;99.90;;;;;;4981114;28;20255;-80
2021/01/08 02:48:53;;;;;;;1999.90;999.90;;;2.80;99.90;;;;;;4998046;28;20226;-79
2021/01/08 02:51:22;;;;;;;1999.90;999.90;;;2.80;99.90;;;;;;4981007;28;20198;-80
2021/01/08 02:53:55;;;;;;;1999.90;999.90;;;2.70;99.90;;;;;;4981371;28;20173;-79
2021/01/08 02:56:47;;;;;;;1999.90;999.90;;;2.70;99.90;;;;;;4981191;28;20261;-79
2021/01/08 02:59:25;;;;;;;1999.90;999.90;;;2.70;99.90;;;;;;4980759;28;20162;-79
2021/01/08 03:01:56;;;;;;;1999.90;999.90;;;2.70;99.90;;;;;;4998281;28;20237;-80
2021/01/08 03:04:31;;;;;;;1999.90;999.90;;;2.80;99.90;;;;;;4981029;28;20186;-79
2021/01/08 03:07:04;;;;;;;1999.90;999.90;;;2.70;99.90;;;;;;4998061;28;20513;-80
2021/01/08 03:09:32;;;;;;;1999.90;999.90;;;2.70;99.90;;;;;;4980450;28;20568;-79
2021/01/08 03:11:58;;;;;;;1999.90;999.90;;;2.60;99.90;;;;;;4998297;28;20286;-80
2021/01/08 03:14:27;;;;;;;1999.90;999.90;;;2.70;99.90;;;;;;4981564;28;20167;-80
2021/01/08 03:16:53;;;;;;;1999.90;999.90;;;2.70;99.90;;;;;;5047751;23;20996;-81
2021/01/08 03:19:21;;;;;;;1999.90;999.90;;;2.70;99.90;;;;;;4998118;28;20178;-81
2021/01/08 03:21:46;;;;;;;1999.90;999.90;;;2.70;99.90;;;;;;4984331;28;20664;-81
2021/01/08 03:24:12;;;;;;;1999.90;999.90;;;2.70;99.90;;;;;;4983359;28;20178;-81
2021/01/08 03:26:38;;;;;;;1999.90;999.90;;;2.60;99.90;;;;;;5000907;28;20173;-81
2021/01/08 03:29:03;;;;;;;1999.90;999.90;;;2.60;99.90;;;;;;5001583;28;20684;-81
2021/01/08 03:31:29;;;;;;;1999.90;999.90;;;2.60;99.90;;;;;;5001222;28;20231;-81
2021/01/08 03:33:54;;;;;;;1999.90;999.90;;;2.60;99.90;;;;;;4983721;28;20167;-81
2021/01/08 03:36:20;;;;;;;1999.90;999.90;;;2.60;99.90;;;;;;4983637;28;20261;-81
2021/01/08 03:38:46;;;;;;;1999.90;999.90;;;2.70;99.90;;;;;;5001958;28;20634;-80
2021/01/08 03:41:11;;;;;;;1999.90;999.90;;;2.70;99.90;;;;;;5000831;28;20170;-81
2021/01/08 03:43:37;;;;;;;1999.90;999.90;;;2.70;99.90;;;;;;4983448;28;20197;-81
2021/01/08 03:46:05;;;;;;;1999.90;999.90;;;2.70;99.90;;;;;;5000888;28;20171;-81
2021/01/08 03:48:30;;;;;;;1999.90;999.90;;;2.70;99.90;;;;;;5001421;28;20221;-81
2021/01/08 03:50:56;;;;;;;1999.90;999.90;;;2.70;99.90;;;;;;5001184;28;20194;-81
2021/01/08 03:53:22;;;;;;;1999.90;999.90;;;2.70;99.90;;;;;;5001580;28;20166;-81
2021/01/08 03:55:47;;;;;;;1999.90;999.90;;;2.60;99.90;;;;;;4983700;28;20193;-81
2021/01/08 03:58:13;;;;;;;1999.90;999.90;;;2.60;99.90;;;;;;5001305;28;20225;-81
2021/01/08 04:00:38;;;;;;;1999.90;999.90;;;2.60;99.90;;;;;;5001446;28;20677;-81
2021/01/08 04:03:04;;;;;;;1999.90;999.90;;;2.50;99.90;;;;;;5000920;28;20262;-81
2021/01/08 04:05:30;;;;;;;1999.90;999.90;;;2.60;99.90;;;;;;5001021;28;20170;-81
2021/01/08 04:07:55;;;;;;;1999.90;999.90;;;2.60;99.90;;;;;;5000700;28;20244;-81
2021/01/08 04:10:21;;;;;;;1999.90;999.90;;;2.50;99.90;;;;;;4984348;28;20637;-82
2021/01/08 04:12:47;;;;;;;1999.90;999.90;;;2.60;99.90;;;;;;5000364;28;20166;-81
2021/01/08 04:15:12;;;;;;;1999.90;999.90;;;2.50;99.90;;;;;;5001338;28;20158;-81
2021/01/08 04:17:38;;;;;;;1999.90;999.90;;;2.60;99.90;;;;;;5000487;28;20589;-81
2021/01/08 04:20:04;;;;;;;1999.90;999.90;;;2.60;99.90;;;;;;5000443;28;20249;-81
2021/01/08 04:22:30;;;;;;;1999.90;999.90;;;2.60;99.90;;;;;;5001426;28;20191;-81
2021/01/08 04:24:55;;;;;;;1999.90;999.90;;;2.50;99.90;;;;;;5000742;28;20170;-81
2021/01/08 04:27:21;;;;;;;1999.90;999.90;;;2.50;99.90;;;;;;5001098;28;20182;-82
2021/01/08 04:29:47;;;;;;;1999.90;999.90;;;2.50;99.90;;;;;;4983781;28;20238;-82
2021/01/08 04:32:12;;;;;;;1999.90;999.90;;;2.50;99.90;;;;;;4982184;28;20545;-81
2021/01/08 04:34:38;;;;;;;1999.90;999.90;;;2.50;99.90;;;;;;4983967;28;20186;-81
2021/01/08 04:37:03;;;;;;;1999.90;999.90;;;2.50;99.90;;;;;;5000829;28;20175;-81
2021/01/08 04:39:29;;;;;;;1999.90;999.90;;;2.60;99.90;;;;;;5001120;28;20166;-81
2021/01/08 04:41:55;;;;;;;1999.90;999.90;;;2.60;99.90;;;;;;4983325;28;20177;-82
2021/01/08 04:44:21;;;;;;;1999.90;999.90;;;2.60;99.90;;;;;;5000438;28;20166;-81
2021/01/08 04:46:49;;;;;;;1999.90;999.90;;;2.60;99.90;;;;;;5000544;28;20825;-81
2021/01/08 04:49:15;;;;;;;1999.90;999.90;;;2.50;99.90;;;;;;5000015;28;20201;-81
2021/01/08 04:51:43;;;;;;;1999.90;999.90;;;2.50;99.90;;;;;;4999921;28;20174;-81
2021/01/08 04:54:09;;;;;;;1999.90;999.90;;;2.50;99.90;;;;;;5000491;28;20162;-81
2021/01/08 04:56:45;;;;;;;1999.90;999.90;;;2.50;99.90;;;;;;5000078;28;20205;-81
2021/01/08 04:59:17;;;;;;;1999.90;999.90;;;2.60;99.90;;;;;;4982493;28;20401;-81
2021/01/08 05:01:48;;;;;;;1999.90;999.90;;;2.50;99.90;;;;;;4999994;28;20163;-81
2021/01/08 05:04:14;;;;;;;1999.90;999.90;;;2.50;99.90;;;;;;5000430;28;20209;-81
2021/01/08 05:06:43;;;;;;;1999.90;999.90;;;2.50;99.90;;;;;;5000272;28;20193;-82
2021/01/08 05:09:08;;;;;;;1999.90;999.90;;;2.50;99.90;;;;;;4999604;28;20721;-81
2021/01/08 05:11:37;;;;;;;1999.90;999.90;;;2.60;99.90;;;;;;5000382;28;20198;-82
2021/01/08 05:14:07;;;;;;;1999.90;999.90;;;2.60;99.90;;;;;;4999887;28;20177;-81
2021/01/08 05:16:33;;;;;;;1999.90;999.90;;;2.60;99.90;;;;;;4998923;28;20543;-81
2021/01/08 05:19:06;;;;;;;1999.90;999.90;;;2.60;99.90;;;;;;4982671;28;20162;-82
2021/01/08 05:21:53;;;;;;;1999.90;999.90;;;2.50;99.90;;;;;;4983333;28;20174;-82
2021/01/08 05:24:22;;;;;;;1999.90;999.90;;;2.40;99.90;;;;;;4998985;28;20154;-82
2021/01/08 05:26:48;;;;;;;1999.90;999.90;;;2.40;99.90;;;;;;4999335;28;20202;-82
2021/01/08 05:29:13;;;;;;;1999.90;999.90;;;2.50;99.90;;;;;;4999182;28;20229;-82
2021/01/08 05:31:39;;;;;;;1999.90;999.90;;;2.40;99.90;;;;;;4999217;28;20159;-81
2021/01/08 05:34:06;;;;;;;1999.90;999.90;;;2.40;99.90;;;;;;4981840;28;20171;-81
2021/01/08 05:36:32;;;;;;;1999.90;999.90;;;2.40;99.90;;;;;;4981556;28;20194;-81
2021/01/08 05:38:59;;;;;;;1999.90;999.90;;;2.50;99.90;;;;;;4981300;28;20174;-83
2021/01/08 05:41:27;;;;;;;1999.90;999.90;;;2.40;99.90;;;;;;4981630;28;20171;-83
2021/01/08 05:43:54;;;;;;;1999.90;999.90;;;2.40;99.90;;;;;;4980976;28;20298;-83
2021/01/08 05:46:29;;;;;;;1999.90;999.90;;;2.40;99.90;;;;;;4998795;28;20174;-83
2021/01/08 05:48:58;;;;;;;1999.90;999.90;;;2.40;99.90;;;;;;4980842;28;20660;-81
2021/01/08 05:51:28;;;;;;;1999.90;999.90;;;2.40;99.90;;;;;;4998559;28;20186;-81
2021/01/08 05:53:59;;;;;;;1999.90;999.90;;;2.40;99.90;;;;;;4998098;28;20221;-81
2021/01/08 05:56:26;;;;;;;1999.90;999.90;;;2.40;99.90;;;;;;4998946;28;20159;-81
2021/01/08 05:58:51;;;;;;;1999.90;999.90;;;2.40;99.90;;;;;;4998971;28;20221;-83
2021/01/08 06:01:18;;;;;;;1999.90;999.90;;;2.40;99.90;;;;;;4998770;28;20170;-83
2021/01/08 06:03:46;;;;;;;1999.90;999.90;;;2.40;99.90;;;;;;4998791;28;20171;-83
2021/01/08 06:06:13;;;;;;;1999.90;999.90;;;2.30;99.90;;;;;;4981546;28;20194;-83
2021/01/08 06:08:42;;;;;;;1999.90;999.90;;;2.40;99.90;;;;;;4998493;28;20201;-84
2021/01/08 06:11:34;;;;;;;1999.90;999.90;;;2.40;99.90;;;;;;4980945;28;20167;-84
2021/01/08 06:14:02;;;;;;;1999.90;999.90;;;2.40;99.90;;;;;;4998324;28;20178;-84
2021/01/08 06:16:39;;;;;;;1999.90;999.90;;;2.40;99.90;;;;;;4980752;28;20277;-83
2021/01/08 06:19:06;;;;;;;1999.90;999.90;;;2.40;99.90;;;;;;4997695;28;20157;-83
2021/01/08 06:21:36;;;;;;;1999.90;999.90;;;2.40;99.90;;;;;;4997857;28;20765;-83
2021/01/08 06:24:03;;;;;;;1999.90;999.90;;;2.40;99.90;;;;;;4997577;28;20162;-83
2021/01/08 06:26:32;;;;;;;1999.90;999.90;;;2.30;99.90;;;;;;4998069;28;20178;-83
2021/01/08 06:29:02;;;;;;;1999.90;999.90;;;2.40;99.90;;;;;;4980552;28;20248;-83
2021/01/08 06:31:46;;;;;;;1999.90;999.90;;;2.40;99.90;;;;;;4997721;28;20630;-83
2021/01/08 06:34:12;;;;;;;1999.90;999.90;;;2.40;99.90;;;;;;4998104;28;20155;-84
2021/01/08 06:36:45;;;;;;;1999.90;999.90;;;2.40;99.90;;;;;;4998084;28;20526;-84
2021/01/08 06:39:21;;;;;;;1999.90;999.90;;;2.40;99.90;;;;;;4997807;28;20522;-84
2021/01/08 06:41:51;;;;;;;1999.90;999.90;;;2.40;99.90;;;;;;4980012;28;20578;-83
2021/01/08 06:44:23;;;;;;;1999.90;999.90;;;2.40;99.90;;;;;;4980598;28;20158;-83
2021/01/08 06:46:52;;;;;;;1999.90;999.90;;;2.40;99.90;;;;;;4998461;28;20638;-83
2021/01/08 06:49:20;;;;;;;1999.90;999.90;;;2.40;99.90;;;;;;4980562;28;20198;-84
2021/01/08 06:51:46;;;;;;;1999.90;999.90;;;2.40;99.90;;;;;;4997210;28;20170;-83
2021/01/08 06:54:13;;;;;;;1999.90;999.90;;;2.40;99.90;;;;;;4997475;28;20163;-83
2021/01/08 06:56:43;;;;;;;1999.90;999.90;;;2.40;99.90;;;;;;4997754;28;20190;-83
2021/01/08 06:59:21;;;;;;;1999.90;999.90;;;2.40;99.90;;;;;;4997588;28;20177;-83
2021/01/08 07:02:04;;;;;;;1999.90;999.90;;;2.40;99.90;;;;;;4997463;28;20154;-83
2021/01/08 07:04:31;;;;;;;1999.90;999.90;;;2.40;99.90;;;;;;4980838;28;20162;-83
2021/01/08 07:07:04;;;;;;;1999.90;999.90;;;2.50;99.90;;;;;;4997236;28;20172;-83
2021/01/08 07:09:35;;;;;;;1999.90;999.90;;;2.50;99.90;;;;;;4980014;28;20276;-83
2021/01/08 07:12:02;;;;;;;1999.90;999.90;;;2.50;99.90;;;;;;4980632;28;20505;-83
2021/01/08 07:14:28;;;;;;;1999.90;999.90;;;2.40;99.90;;;;;;4980322;28;20642;-83
2021/01/08 07:16:56;;;;;;;1999.90;999.90;;;2.50;99.90;;;;;;4979335;28;20186;-83
2021/01/08 07:19:29;;;;;;;1999.90;999.90;;;2.50;99.90;;;;;;4997183;28;20573;-83
2021/01/08 07:22:04;;;;;;;1999.90;999.90;;;2.60;99.90;;;;;;4979274;28;20622;-83
2021/01/08 07:24:33;;;;;;;1999.90;999.90;;;2.50;99.90;;;;;;4997234;28;20155;-83
2021/01/08 07:27:19;;;;;;;1999.90;999.90;;;2.50;99.90;;;;;;4997454;28;20197;-83
2021/01/08 07:30:10;;;;;;;1999.90;999.90;;;2.50;99.90;;;;;;4997506;28;20178;-84
2021/01/08 07:32:56;;;;;;;1999.90;999.90;;;2.60;99.90;;;;;;4979534;28;20206;-83
2021/01/08 07:35:55;;;;;;;1999.90;999.90;;;2.50;99.90;;;;;;4972526;28;20701;-83
2021/01/08 07:38:32;;;;;;;1999.90;999.90;;;2.50;99.90;;;;;;4981995;28;20151;-84
2021/01/08 07:40:58;;;;;;;1999.90;999.90;;;2.50;99.90;;;;;;4978853;28;20645;-83
2021/01/08 07:43:34;;;;;;;1999.90;999.90;;;2.60;99.90;;;;;;4996595;28;20189;-83
2021/01/08 07:46:00;;;;;;;1999.90;999.90;;;2.60;99.90;;;;;;4996729;28;20287;-83
2021/01/08 07:48:28;;;;;;;1999.90;999.90;;;2.60;99.90;;;;;;4996270;28;20269;-84
2021/01/08 07:51:07;;;;;;;1999.90;999.90;;;2.60;99.90;;;;;;4996403;28;20190;-83
2021/01/08 07:53:42;;;;;;;1999.90;999.90;;;2.60;99.90;;;;;;4997469;28;20158;-84
2021/01/08 07:56:18;;;;;;;1999.90;999.90;;;2.50;99.90;;;;;;4979238;28;20261;-83
2021/01/08 07:58:46;;;;;;;1999.90;999.90;;;2.50;99.90;;;;;;4978995;28;20257;-83
2021/01/08 08:01:17;;;;;;;1999.90;999.90;;;2.60;99.90;;;;;;4979466;28;20205;-84
2021/01/08 08:03:43;;;;;;;1999.90;999.90;;;2.60;99.90;;;;;;4997049;28;20177;-83
2021/01/08 08:06:09;;;;;;;1999.90;999.90;;;2.60;99.90;;;;;;4996263;28;20163;-83
2021/01/08 08:08:42;;;;;;;1999.90;999.90;;;2.60;99.90;;;;;;4999694;28;20251;-84
2021/01/08 08:11:12;;;;;;;1999.90;999.90;;;2.70;99.90;;;;;;5000041;28;20727;-83
2021/01/08 08:13:38;;;;;;;1999.90;999.90;;;2.60;99.90;;;;;;4999625;28;20217;-83
2021/01/08 08:16:04;;;;;;;1999.90;999.90;;;2.60;99.90;;;;;;4982339;28;20705;-83
2021/01/08 08:18:30;;;;;;;1999.90;999.90;;;2.60;99.90;;;;;;4982263;28;20210;-83
2021/01/08 08:21:06;;;;;;;1999.90;999.90;;;2.60;99.90;;;;;;4999863;28;20237;-83
2021/01/08 08:23:35;;;;;;;1999.90;999.90;;;2.70;99.90;;;;;;4999622;28;20176;-83
2021/01/08 08:26:06;;;;;;;1999.90;999.90;;;2.70;99.90;;;;;;4982503;28;20565;-84
2021/01/08 08:28:38;;;;;;;1999.90;999.90;;;2.70;99.90;;;;;;4981423;28;20206;-83
2021/01/08 08:31:14;;;;;;;1999.90;999.90;;;2.70;99.90;;;;;;4981776;28;20290;-83
2021/01/08 08:33:45;;;;;;;1999.90;999.90;;;2.70;99.90;;;;;;4999248;28;20165;-83
2021/01/08 08:36:20;;;;;;;1999.90;999.90;;;2.60;99.90;;;;;;4981732;28;20538;-83
2021/01/08 08:39:15;;;;;;;1999.90;999.90;;;2.60;99.90;;;;;;4999397;28;20155;-83
2021/01/08 08:41:45;;;;;;;1999.90;999.90;;;2.60;99.90;;;;;;4986366;28;20186;-83
2021/01/08 08:44:16;;;;;;;1999.90;999.90;;;2.60;99.90;;;;;;4999232;28;20166;-83
2021/01/08 08:46:56;;;;;;;1999.90;999.90;;;2.60;99.90;;;;;;4999218;28;20487;-84
2021/01/08 08:49:28;;;;;;;1999.90;999.90;;;2.60;99.90;;;;;;4981808;28;20186;-84
2021/01/08 08:51:54;;;;;;;1999.90;999.90;;;2.60;99.90;;;;;;4999685;28;20147;-84
2021/01/08 08:54:23;;;;;;;1999.90;999.90;;;2.60;99.90;;;;;;4998488;28;20181;-83
2021/01/08 08:57:02;;;;;;;1999.90;999.90;;;2.70;99.90;;;;;;4998535;28;20167;-83
2021/01/08 08:59:40;;;;;;;1999.90;999.90;;;2.60;99.90;;;;;;4964358;28;20165;-84
2021/01/08 09:02:22;;;;;;;1999.90;999.90;;;2.60;99.90;;;;;;4997148;28;20228;-84
2021/01/08 09:04:52;;;;;;;1999.90;999.90;;;2.70;99.90;;;;;;4998189;28;20562;-84
2021/01/08 09:07:41;;;;;;;1999.90;999.90;;;2.60;99.90;;;;;;4998320;28;20167;-84
2021/01/08 09:10:08;;;;;;;1999.90;999.90;;;2.70;99.90;;;;;;4998686;28;20191;-84
2021/01/08 09:12:59;;;;;;;1999.90;999.90;;;2.70;99.90;;;;;;4998623;28;20193;-82
2021/01/08 09:16:01;;;;;;;1999.90;999.90;;;2.80;99.90;;;;;;4981992;28;20163;-81
2021/01/08 09:18:40;;;;;;;1999.90;999.90;;;2.80;99.90;;;;;;4975155;28;20189;-81
2021/01/08 09:21:25;;;;;;;1999.90;999.90;;;2.90;99.90;;;;;;4999478;28;20190;-82
2021/01/08 09:23:59;;;;;;;1999.90;999.90;;;2.90;99.90;;;;;;4999831;28;20190;-82
2021/01/08 09:26:25;;;;;;;1999.90;999.90;;;2.90;99.90;;;;;;4982841;28;20163;-82
2021/01/08 09:28:55;;;;;;;1999.90;999.90;;;3.00;99.90;;;;;;4999363;28;20190;-82
2021/01/08 09:31:41;;;;;;;1999.90;999.90;;;3.00;99.90;;;;;;4999940;28;20584;-82
2021/01/08 09:34:07;;;;;;;1999.90;999.90;;;3.00;99.90;;;;;;4998808;28;20151;-82
2021/01/08 09:36:35;;;;;;;1999.90;999.90;;;3.00;99.90;;;;;;4999201;28;20171;-82
2021/01/08 09:39:05;;;;;;;1999.90;999.90;;;3.00;99.90;;;;;;4998786;28;20572;-81
2021/01/08 09:41:36;;;;;;;1999.90;999.90;;;3.10;99.90;;;;;;4997807;28;20654;-81
2021/01/08 09:44:06;;;;;;;1999.90;999.90;;;3.10;99.90;;;;;;4996764;28;20244;-81
2021/01/08 09:46:56;;;;;;;1999.90;999.90;;;3.20;99.90;;;;;;4997461;28;20153;-82
2021/01/08 09:49:26;;;;;;;1999.90;999.90;;;3.20;99.90;;;;;;4996980;28;20609;-82
2021/01/08 09:52:01;;;;;;;1999.90;999.90;;;3.20;99.90;;;;;;4997660;28;20163;-82
2021/01/08 09:54:43;;;;;;;1999.90;999.90;;;3.20;99.90;;;;;;4979639;28;20169;-81
2021/01/08 09:57:10;;;;;;;1999.90;999.90;;;3.20;99.90;;;;;;4997157;28;20165;-81
2021/01/08 09:59:36;;;;;;;1999.90;999.90;;;3.30;99.90;;;;;;4979810;28;20178;-82
2021/01/08 10:04:33;;;;;;;1999.90;999.90;;;3.30;99.90;;;;;;4997198;28;20163;-81
2021/01/08 10:07:04;;;;;;;1999.90;999.90;;;3.40;99.90;;;;;;4996584;28;20174;-81
2021/01/08 10:10:22;;;;;;;1999.90;999.90;;;3.40;99.90;;;;;;4978937;28;20186;-82
2021/01/08 10:12:50;;;;;;;1999.90;999.90;;;3.30;99.90;;;;;;4972242;28;20179;-81
2021/01/08 10:15:32;;;;;;;1999.90;999.90;;;3.30;99.90;;;;;;4978033;28;20167;-81
2021/01/08 10:18:06;;;;;;;1999.90;999.90;;;3.30;99.90;;;;;;4996529;28;20189;-81
2021/01/08 10:20:41;;;;;;;1999.90;999.90;;;3.40;99.90;;;;;;4979866;28;20541;-81
2021/01/08 10:23:10;;;;;;;1999.90;999.90;;;3.50;99.90;;;;;;4980108;28;20223;-82
2021/01/08 10:25:36;;;;;;;1999.90;999.90;;;3.50;99.90;;;;;;4980264;28;20646;-81
2021/01/08 10:28:24;;;;;;;1999.90;999.90;;;3.50;99.90;;;;;;4998545;28;20193;-81
2021/01/08 10:30:52;;;;;;;1999.90;999.90;;;3.40;99.90;;;;;;4997950;28;20143;-82
2021/01/08 10:33:24;;;;;;;1999.90;999.90;;;3.50;99.90;;;;;;4999015;28;20167;-82
2021/01/08 10:35:55;;;;;;;1999.90;999.90;;;3.50;99.90;;;;;;4998797;28;20178;-81
2021/01/08 10:38:21;;;;;;;1999.90;999.90;;;3.50;99.90;;;;;;4998722;28;20197;-82
2021/01/08 10:40:47;;;;;;;1999.90;999.90;;;3.50;99.90;;;;;;4981431;28;20186;-82
2021/01/08 10:43:13;;;;;;;1999.90;999.90;;;3.50;99.90;;;;;;4981375;28;20224;-81
2021/01/08 10:45:39;;;;;;;1999.90;999.90;;;3.50;99.90;;;;;;4981509;28;20170;-82
2021/01/08 10:48:05;;;;;;;1999.90;999.90;;;3.60;99.90;;;;;;4995455;28;20441;-81
2021/01/08 10:50:32;;;;;;;1999.90;999.90;;;3.60;99.90;;;;;;4995283;28;20224;-81
2021/01/08 10:53:02;;;;;;;1999.90;999.90;;;3.70;99.90;;;;;;4978841;28;20163;-82
2021/01/08 10:55:32;;;;;;;1999.90;999.90;;;3.70;99.90;;;;;;4998399;28;20175;-81
2021/01/08 10:58:05;;;;;;;1999.90;999.90;;;3.60;99.90;;;;;;4980560;28;20650;-82
2021/01/08 11:00:46;;;;;;;1999.90;999.90;;;3.60;99.90;;;;;;4998533;28;20205;-82
2021/01/08 11:03:13;;;;;;;1999.90;999.90;;;3.70;99.90;;;;;;4998555;28;20151;-82
2021/01/08 11:05:42;;;;;;;1999.90;999.90;;;3.80;99.90;;;;;;4998054;28;20616;-81
2021/01/08 11:08:19;;;;;;;1999.90;999.90;;;3.80;99.90;;;;;;4980399;28;20232;-81
2021/01/08 11:10:45;;;;;;;1999.90;999.90;;;3.90;99.90;;;;;;4998652;28;20151;-82
2021/01/08 11:13:13;;;;;;;1999.90;999.90;;;3.90;99.90;;;;;;5082040;23;20233;-79
2021/01/08 11:15:39;;;;;;;1999.90;999.90;;;3.80;99.90;;;;;;5002225;28;20162;-79
2021/01/08 11:18:08;;;;;;;1999.90;999.90;;;3.80;99.90;;;;;;5019661;28;20667;-79
2021/01/08 11:20:36;;;;;;;1999.90;999.90;;;3.80;99.90;;;;;;5020005;28;20173;-80
2021/01/08 11:23:04;;;;;;;1999.90;999.90;;;3.90;99.90;;;;;;5003280;28;20227;-79
2021/01/08 11:25:29;;;;;;;1999.90;999.90;;;4.00;99.90;;;;;;5002211;28;20173;-79
2021/01/08 11:27:55;;;;;;;1999.90;999.90;;;4.00;99.90;;;;;;5001763;28;20228;-79
2021/01/08 11:30:24;;;;;;;1999.90;999.90;;;4.00;99.90;;;;;;5002563;28;20176;-79
2021/01/08 11:32:50;;;;;;;1999.90;999.90;;;4.00;99.90;;;;;;5001400;28;20185;-79
2021/01/08 11:35:16;;;;;;;1999.90;999.90;;;4.10;99.90;;;;;;5001393;28;20533;-80
2021/01/08 11:37:41;;;;;;;1999.90;999.90;;;4.10;99.90;;;;;;5019569;28;20166;-80
2021/01/08 11:40:08;;;;;;;1999.90;999.90;;;4.00;99.90;;;;;;5002208;28;20412;-80
2021/01/08 11:42:34;;;;;;;1999.90;999.90;;;4.10;99.90;;;;;;5024645;28;20173;-80
2021/01/08 11:44:59;;;;;;;1999.90;999.90;;;4.00;99.90;;;;;;5006503;28;20162;-80
2021/01/08 11:47:25;;;;;;;1999.90;999.90;;;4.00;99.90;;;;;;5006244;28;20193;-80
2021/01/08 11:49:54;;;;;;;1999.90;999.90;;;4.10;99.90;;;;;;5023855;28;21026;-80
2021/01/08 11:52:22;;;;;;;1999.90;999.90;;;4.10;99.90;;;;;;5006533;28;20463;-80
2021/01/08 11:54:51;;;;;;;1999.90;999.90;;;4.10;99.90;;;;;;5006704;28;20169;-80
2021/01/08 11:57:16;;;;;;;1999.90;999.90;;;4.10;99.90;;;;;;5023678;28;20185;-80
2021/01/08 11:59:42;;;;;;;1999.90;999.90;;;4.10;99.90;;;;;;5005931;28;20197;-80
2021/01/08 12:02:11;;;;;;;1999.90;999.90;;;4.20;99.90;;;;;;5023512;28;20166;-81
2021/01/08 12:04:37;;;;;;;1999.90;999.90;;;4.20;99.90;;;;;;5007054;28;20170;-80
2021/01/08 12:07:03;;;;;;;1999.90;999.90;;;4.20;99.90;;;;;;5023439;28;20598;-80
2021/01/08 12:09:31;;;;;;;1999.90;999.90;;;4.10;99.90;;;;;;5023224;28;20444;-80
2021/01/08 12:12:01;;;;;;;1999.90;999.90;;;4.10;99.90;;;;;;5022362;28;20257;-80
2021/01/08 12:14:31;;;;;;;1999.90;999.90;;;4.10;99.90;;;;;;5022500;28;20165;-80
2021/01/08 12:17:16;;;;;;;1999.90;999.90;;;4.10;99.90;;;;;;5003903;28;20190;-79
2021/01/08 12:19:42;;;;;;;1999.90;999.90;;;4.10;99.90;;;;;;5022196;28;20150;-80
2021/01/08 12:22:12;;;;;;;1999.90;999.90;;;4.10;99.90;;;;;;5022653;28;20181;-80
2021/01/08 12:24:38;;;;;;;1999.90;999.90;;;4.10;99.90;;;;;;5021326;28;20151;-80
2021/01/08 12:27:04;;;;;;;1999.90;999.90;;;4.20;99.90;;;;;;5003324;28;20255;-79
2021/01/08 12:29:33;;;;;;;1999.90;999.90;;;4.20;99.90;;;;;;5021804;28;20451;-80